TimePDT,TemperatureF,Dew PointF,Humidity,Sea Level PressureIn,VisibilityMPH,Wind Direction,Wind SpeedMPH,Gust SpeedMPH,PrecipitationIn,Events,Conditions,WindDirDegrees,DateUTC
12:55 AM,63.7,41.2,44,29.87,10.0,SSE,5.8,-,N/A,,Clear,160,2013-08-04 07:55:00
1:55 AM,61.9,40.6,46,29.88,10.0,SSW,3.5,-,N/A,,Clear,210,2013-08-04 08:55:00
2:55 AM,61.0,37.9,42,29.86,10.0,South,4.6,-,N/A,,Clear,170,2013-08-04 09:55:00
3:55 AM,61.0,31.6,33,29.86,10.0,South,4.6,-,N/A,,Partly Cloudy,170,2013-08-04 10:55:00
4:55 AM,60.1,23.7,25,29.87,10.0,SE,3.5,-,N/A,,Clear,130,2013-08-04 11:55:00
5:55 AM,59.5,21.4,23,29.89,10.0,ESE,3.5,-,N/A,,Mostly Cloudy,110,2013-08-04 12:55:00
6:55 AM,62.8,24.3,23,29.90,10.0,South,4.6,-,N/A,,Mostly Cloudy,180,2013-08-04 13:55:00
7:55 AM,71.4,26.4,19,29.90,10.0,West,1.2,-,N/A,,Clear,280,2013-08-04 14:55:00
8:55 AM,81.7,25.3,13,29.90,10.0,Variable,1.2,-,N/A,,Scattered Clouds,0,2013-08-04 15:55:00
9:55 AM,84.0,23.5,11,29.91,10.0,WNW,3.5,-,N/A,,Clear,300,2013-08-04 16:55:00
10:55 AM,88.5,22.6,9,29.89,10.0,Variable,5.8,-,N/A,,Clear,0,2013-08-04 17:55:00
11:55 AM,90.1,18.1,7,29.89,10.0,North,3.5,-,N/A,,Clear,10,2013-08-04 18:55:00
12:55 PM,92.8,16.7,6,29.88,10.0,Variable,2.3,-,N/A,,Clear,0,2013-08-04 19:55:00
1:55 PM,93.7,13.8,5,29.87,10.0,West,5.8,-,N/A,,Partly Cloudy,280,2013-08-04 20:55:00
2:55 PM,95.0,13.5,5,29.85,10.0,Variable,5.8,-,N/A,,Scattered Clouds,0,2013-08-04 21:55:00
3:55 PM,94.6,16.5,6,29.83,10.0,WNW,5.8,15.0,N/A,,Clear,290,2013-08-04 22:55:00
4:55 PM,93.0,24.4,8,29.83,10.0,NW,18.4,25.3,N/A,,Clear,310,2013-08-04 23:55:00
5:55 PM,90.7,28.6,11,29.83,10.0,WNW,16.1,21.9,N/A,,Clear,300,2013-08-05 00:55:00
6:55 PM,88.2,27.7,11,29.83,10.0,NW,11.5,-,N/A,,Clear,310,2013-08-05 01:55:00
7:55 PM,81.9,27.9,14,29.84,10.0,NNW,8.1,-,N/A,,Clear,330,2013-08-05 02:55:00
8:55 PM,76.6,33.8,21,29.86,10.0,Variable,2.3,-,N/A,,Clear,0,2013-08-05 03:55:00
9:55 PM,72.9,34.3,24,29.88,10.0,NNW,4.6,-,N/A,,Clear,340,2013-08-05 04:55:00
10:55 PM,68.2,37.6,33,29.88,10.0,WSW,2.3,-,N/A,,Clear,250,2013-08-05 05:55:00
11:55 PM,64.9,33.1,31,29.89,10.0,SSE,3.5,-,N/A,,Clear,150,2013-08-05 06:55:00